Details From LIMC - Milano Malpensa
To LIRQ - Firenze
Flight Number -
Tags Generated
Created
Modified
Stats Distance 153 nm / 283 km
Max Altitude 0 ft / 0 m
Waypoints 2
Social Downloads 1
Likes 0
Share VATSIM

Download

Looking for another format? Having issues loading an existing format? Contact us
Advertisement - Login to hide

Notes

Generated

Route

LIMC LIRQ

ID Type Via Altitude Latitude Longitude Leg Dist Tot Dist Heading (true) Name
O LIMC APT - 0 ft / 0 m 45.65044˚ 8.72841˚ - 0 nm - -
O LIRQ APT - 0 ft / 0 m 43.80507˚ 11.19741˚ 152 nm 152 nm 136° / 137° -

Altitude Profile

Advertisement - Login to hide

LIMC

Details ICAO LIMC (MXP)
Name Milano Malpensa
Region Italy
Timezone Europe/Rome (UTC+1.0)
Stats Elevation 767 ft / 234 m (AMSL)
Location 45.630606° 8.728111°
Runways 2
Magnetic Variation 2.377° E

METAR

LIMC 151350Z 23008KT CAVOK 07/03 Q0997 NOSIG

Decode

TAF

TAF LIMC 151100Z 1512/1618 VRB05KT 8000 NSC BECMG 1522/1524 3000 BR TEMPO 1604/1607 1200 BCFG BECMG 1610/1612 6000

Decode

Departure Runways

ID Width Length Bearing (true) Bearing (mag) Surface Threshold Offset Overrun Length
17L 197 ft / 60 m 12,869 ft / 3,923 m 169.62° 167.24° Asphalt 3,094 ft / 943 m 0 ft / 0 m
17R 197 ft / 60 m 12,869 ft / 3,923 m 169.62° 167.24° Asphalt 0 ft / 0 m 0 ft / 0 m
35L 197 ft / 60 m 12,869 ft / 3,923 m 349.62° 347.24° Asphalt 1,329 ft / 405 m 0 ft / 0 m
35R 197 ft / 60 m 12,869 ft / 3,923 m 349.62° 347.24° Asphalt 0 ft / 0 m 0 ft / 0 m

LIRQ

Details ICAO LIRQ (FLR)
Name Firenze
Region Italy
Timezone Europe/Rome (UTC+1.0)
Stats Elevation 142 ft / 43 m (AMSL)
Location 43.809984° 11.205118°
Runways 1
Magnetic Variation 2.875° E

METAR

LIRQ 151350Z 10003KT 070V140 9999 BKN080 12/09 Q0998

Decode

TAF

TAF TAF LIRQ 151100Z 1512/1612 22010KT 9999 SCT025 BKN050 TEMPO 1512/1518 4000 RA BECMG 1516/1518 VRB05KT TEMPO 1518/1606 3000 BR TEMPO 1606/1612 4000 SHRA

Decode

Destination Runways

ID Width Length Bearing (true) Bearing (mag) Surface Threshold Offset Overrun Length
05 98 ft / 30 m 5,420 ft / 1,652 m 48.52° 45.64° Asphalt 492 ft / 150 m 0 ft / 0 m
23 98 ft / 30 m 5,420 ft / 1,652 m 228.53° 225.65° Asphalt 2,287 ft / 697 m 0 ft / 0 m

Approach Navaids

Runway Type Ident Frequency Range Bearing (true) Bearing (mag) Slope Elevation
05 Localiser IFZ 110.30 MHz 18 nm / 33 km 48.10° 45.23° - 131 ft / 40 m (AMSL)
05 Glidescope IFZ 110.30 MHz 10 nm / 19 km 47.00° 44.12° 3.00° 144 ft / 44 m (AMSL)
05 DME IFZ 110.30 MHz 18 nm / 33 km - - - 144 ft / 44 m (AMSL)

Popular Alternatives